createdAt,value
2022-07-25T00:01:22.113Z,2.75
2022-07-25T00:03:51.730Z,2.88
2022-07-25T00:06:19.988Z,2.70
2022-07-25T00:08:47.969Z,2.95
2022-07-25T00:11:16.102Z,2.70
2022-07-25T00:13:44.116Z,3.10
2022-07-25T00:16:13.646Z,2.72
2022-07-25T00:18:42.145Z,2.70
2022-07-25T00:21:10.385Z,2.95
2022-07-25T00:23:38.443Z,2.65
2022-07-25T00:26:06.870Z,2.92
2022-07-25T00:28:35.061Z,3.05
2022-07-25T00:31:03.345Z,3.05
2022-07-25T00:33:33.018Z,2.67
2022-07-25T00:36:01.278Z,3.10
2022-07-25T00:38:29.354Z,3.00
2022-07-25T00:40:57.335Z,2.95
2022-07-25T00:43:25.390Z,2.90
2022-07-25T00:45:53.414Z,2.90
2022-07-25T00:48:21.493Z,3.20
2022-07-25T00:50:50.886Z,3.13
2022-07-25T00:53:19.906Z,3.60
2022-07-25T00:55:48.779Z,3.70
2022-07-25T00:58:18.808Z,3.60
2022-07-25T01:00:47.159Z,3.65
2022-07-25T01:03:16.273Z,4.20
2022-07-25T01:05:50.225Z,4.20
2022-07-25T01:08:23.450Z,4.03
2022-07-25T01:10:51.756Z,4.40
2022-07-25T01:13:19.829Z,3.90
2022-07-25T01:15:49.159Z,3.65
2022-07-25T01:18:17.310Z,4.43
2022-07-25T01:20:47.206Z,3.95
2022-07-25T01:23:15.280Z,3.38
2022-07-25T01:25:43.545Z,3.60
2022-07-25T01:28:11.677Z,3.55
2022-07-25T01:30:39.930Z,3.50
2022-07-25T01:33:08.039Z,3.83
2022-07-25T01:35:41.501Z,3.78
2022-07-25T01:38:13.704Z,3.55
2022-07-25T01:40:42.941Z,3.42
2022-07-25T01:43:12.255Z,3.85
2022-07-25T01:45:40.354Z,4.00
2022-07-25T01:48:09.122Z,3.85
2022-07-25T01:50:37.222Z,3.90
2022-07-25T01:53:05.581Z,3.72
2022-07-25T01:55:34.988Z,3.45
2022-07-25T01:58:03.156Z,3.65
2022-07-25T02:00:31.316Z,4.05
2022-07-25T02:03:28.472Z,4.03
2022-07-25T02:05:56.575Z,4.03
2022-07-25T02:08:24.786Z,3.70
2022-07-25T02:10:54.388Z,4.25
2022-07-25T02:13:22.733Z,3.97
2022-07-25T02:15:51.187Z,4.25
2022-07-25T02:18:19.274Z,4.10
2022-07-25T02:20:47.749Z,4.18
2022-07-25T02:23:15.795Z,4.38
2022-07-25T02:25:44.125Z,4.35
2022-07-25T02:28:13.824Z,4.32
2022-07-25T02:30:41.885Z,4.40
2022-07-25T02:33:10.006Z,4.75
2022-07-25T02:35:37.994Z,4.38
2022-07-25T02:38:06.044Z,4.50
2022-07-25T02:40:34.421Z,4.53
2022-07-25T02:43:02.649Z,4.75
2022-07-25T02:45:32.077Z,4.65
2022-07-25T02:48:02.346Z,4.45
2022-07-25T02:50:30.371Z,4.03
2022-07-25T02:52:58.430Z,4.22
2022-07-25T02:55:26.656Z,4.80
2022-07-25T02:57:54.852Z,4.95
2022-07-25T03:00:23.945Z,4.90
2022-07-25T03:02:53.393Z,5.07
2022-07-25T03:05:21.701Z,5.00
2022-07-25T03:07:49.737Z,5.03
2022-07-25T03:10:17.914Z,4.85
2022-07-25T03:12:46.806Z,4.70
2022-07-25T03:15:15.693Z,5.30
2022-07-25T03:17:43.988Z,5.25
2022-07-25T03:20:14.178Z,5.28
2022-07-25T03:22:42.313Z,5.07
2022-07-25T03:25:15.603Z,4.85
2022-07-25T03:27:50.648Z,4.78
2022-07-25T03:30:18.913Z,5.30
2022-07-25T03:32:47.736Z,5.20
2022-07-25T03:35:17.158Z,4.90
2022-07-25T03:37:45.557Z,5.10
2022-07-25T03:40:15.392Z,5.00
2022-07-25T03:42:44.429Z,5.05
2022-07-25T03:45:12.768Z,5.13
2022-07-25T03:47:40.836Z,5.13
2022-07-25T03:50:09.995Z,5.43
2022-07-25T03:52:39.488Z,4.50
2022-07-25T03:55:09.486Z,5.30
2022-07-25T03:57:37.645Z,5.43
2022-07-25T04:00:09.528Z,5.57
2022-07-25T04:02:38.490Z,5.75
2022-07-25T04:05:08.838Z,5.55
2022-07-25T04:07:39.216Z,5.45
2022-07-25T04:10:10.113Z,5.47
2022-07-25T04:12:38.908Z,5.63
2022-07-25T04:15:08.421Z,6.07
2022-07-25T04:17:37.916Z,5.30
2022-07-25T04:20:09.079Z,5.18
2022-07-25T04:22:37.039Z,6.03
2022-07-25T04:27:35.811Z,5.70
2022-07-25T04:30:04.024Z,5.65
2022-07-25T04:32:32.008Z,6.18
2022-07-25T04:34:59.960Z,5.40
2022-07-25T04:37:28.085Z,5.55
2022-07-25T04:39:56.134Z,5.50
2022-07-25T04:42:25.438Z,6.47
2022-07-25T04:44:53.447Z,5.70
2022-07-25T04:47:21.420Z,5.68
2022-07-25T04:49:49.424Z,6.28
2022-07-25T04:52:17.395Z,6.10
2022-07-25T04:54:45.394Z,6.43
2022-07-25T04:57:13.410Z,6.03
2022-07-25T04:59:44.236Z,6.32
2022-07-25T05:02:12.400Z,5.65
2022-07-25T05:04:45.161Z,6.47
2022-07-25T05:07:13.629Z,6.57
2022-07-25T05:09:41.740Z,6.28
2022-07-25T05:12:10.410Z,6.15
2022-07-25T05:14:38.558Z,6.10
2022-07-25T05:17:08.076Z,6.43
2022-07-25T05:19:36.126Z,6.63
2022-07-25T05:22:05.345Z,6.13
2022-07-25T05:24:35.030Z,6.38
2022-07-25T05:27:04.081Z,6.90
2022-07-25T05:29:32.901Z,6.85
2022-07-25T05:32:01.136Z,6.97
2022-07-25T05:34:30.543Z,6.72
2022-07-25T05:36:58.567Z,6.78
2022-07-25T05:39:26.596Z,7.47
2022-07-25T05:41:54.656Z,7.70
2022-07-25T05:44:22.747Z,7.47
2022-07-25T05:46:50.782Z,7.13
2022-07-25T05:49:18.830Z,7.35
2022-07-25T05:51:48.188Z,7.65
2022-07-25T05:54:16.344Z,7.95
2022-07-25T05:56:44.414Z,7.40
2022-07-25T05:59:12.431Z,7.50
2022-07-25T06:01:40.535Z,7.22
2022-07-25T06:04:09.107Z,7.78
2022-07-25T06:06:37.380Z,9.55
2022-07-25T06:09:07.973Z,8.60
2022-07-25T06:11:36.301Z,8.43
2022-07-25T06:14:19.414Z,8.20
2022-07-25T06:16:47.929Z,8.27
2022-07-25T06:19:16.090Z,8.10
2022-07-25T06:21:44.109Z,7.57
2022-07-25T06:24:13.485Z,7.13
2022-07-25T06:26:41.601Z,8.35
2022-07-25T06:29:09.757Z,7.15
2022-07-25T06:31:37.803Z,7.55
2022-07-25T06:34:06.164Z,7.85
2022-07-25T06:36:34.366Z,8.35
2022-07-25T06:39:03.274Z,8.32
2022-07-25T06:41:32.595Z,8.02
2022-07-25T06:44:00.642Z,8.10
2022-07-25T06:46:31.351Z,8.30
2022-07-25T06:48:59.673Z,11.27
2022-07-25T06:51:27.770Z,8.60
2022-07-25T06:53:56.653Z,7.85
2022-07-25T06:56:24.722Z,18.02
2022-07-25T06:58:54.655Z,10.35
2022-07-25T07:01:22.656Z,7.70
2022-07-25T07:03:50.883Z,7.93
2022-07-25T07:06:19.022Z,7.55
2022-07-25T07:08:47.028Z,7.90
2022-07-25T07:11:16.692Z,7.90
2022-07-25T07:13:44.864Z,7.97
2022-07-25T07:16:14.523Z,8.35
2022-07-25T07:18:45.809Z,11.27
2022-07-25T07:21:21.489Z,8.63
2022-07-25T07:23:53.619Z,8.45
2022-07-25T07:26:22.405Z,8.98
2022-07-25T07:28:50.554Z,8.50
2022-07-25T07:31:20.187Z,9.40
2022-07-25T07:33:48.261Z,11.15
2022-07-25T07:36:16.274Z,14.23
2022-07-25T07:38:45.174Z,8.35
2022-07-25T07:41:13.744Z,8.07
2022-07-25T07:43:41.808Z,8.82
2022-07-25T07:46:09.912Z,8.75
2022-07-25T07:48:39.795Z,8.95
2022-07-25T07:51:08.146Z,8.05
2022-07-25T07:53:53.764Z,10.65
2022-07-25T07:56:21.802Z,13.65
2022-07-25T07:58:50.485Z,8.48
2022-07-25T08:01:19.244Z,12.02
2022-07-25T08:03:48.655Z,8.38
2022-07-25T08:06:16.748Z,8.70
2022-07-25T08:08:44.788Z,9.10
2022-07-25T08:11:13.022Z,8.73
2022-07-25T08:13:41.091Z,8.20
2022-07-25T08:16:11.751Z,8.30
2022-07-25T08:18:39.821Z,8.15
2022-07-25T08:21:09.246Z,9.27
2022-07-25T08:23:39.215Z,9.52
2022-07-25T08:26:08.123Z,8.32
2022-07-25T08:28:36.180Z,7.57
2022-07-25T08:31:04.465Z,8.10
2022-07-25T08:33:32.629Z,7.97
2022-07-25T08:36:01.154Z,8.07
2022-07-25T08:38:30.866Z,8.27
2022-07-25T08:40:59.796Z,8.23
2022-07-25T08:43:29.260Z,7.78
2022-07-25T08:45:57.342Z,7.63
2022-07-25T08:48:27.728Z,8.32
2022-07-25T08:50:58.090Z,8.02
2022-07-25T08:53:33.046Z,8.10
2022-07-25T08:56:10.396Z,7.97
2022-07-25T08:58:41.770Z,7.57
2022-07-25T09:01:12.561Z,7.75
2022-07-25T09:03:40.697Z,7.97
2022-07-25T09:06:17.797Z,7.53
2022-07-25T09:08:57.837Z,7.72
2022-07-25T09:11:35.687Z,7.70
2022-07-25T09:14:08.906Z,8.52
2022-07-25T09:16:41.012Z,7.97
2022-07-25T09:19:15.083Z,8.27
2022-07-25T09:21:46.128Z,7.80
2022-07-25T09:24:17.854Z,7.80
2022-07-25T09:26:50.076Z,8.35
2022-07-25T09:29:24.684Z,14.27
2022-07-25T09:31:54.916Z,7.43
2022-07-25T09:34:38.804Z,12.70
2022-07-25T09:37:09.248Z,7.45
2022-07-25T09:39:46.316Z,7.80
2022-07-25T09:42:26.691Z,7.53
2022-07-25T09:45:15.961Z,7.50
2022-07-25T09:47:56.406Z,7.35
2022-07-25T09:50:27.181Z,7.10
2022-07-25T09:53:02.446Z,7.95
2022-07-25T09:55:32.797Z,7.20
2022-07-25T09:58:02.232Z,7.50
2022-07-25T10:00:32.572Z,7.78
2022-07-25T10:03:18.593Z,6.93
2022-07-25T10:06:08.919Z,7.25
2022-07-25T10:08:40.047Z,7.00
2022-07-25T10:11:21.202Z,9.68
2022-07-25T10:13:51.204Z,7.45
2022-07-25T10:16:22.579Z,7.50
2022-07-25T10:18:53.761Z,7.05
2022-07-25T10:21:26.909Z,6.80
2022-07-25T10:24:02.335Z,6.88
2022-07-25T10:26:31.504Z,6.72
2022-07-25T10:29:02.093Z,6.90
2022-07-25T10:31:38.412Z,7.35
2022-07-25T10:34:10.638Z,7.10
2022-07-25T10:36:46.719Z,7.07
2022-07-25T10:39:17.002Z,6.65
2022-07-25T10:41:52.342Z,7.78
2022-07-25T10:44:22.542Z,7.50
2022-07-25T10:46:50.626Z,7.25
2022-07-25T10:49:29.070Z,7.03
2022-07-25T10:52:03.107Z,6.85
2022-07-25T10:54:36.556Z,7.30
2022-07-25T10:57:07.203Z,7.43
2022-07-25T10:59:39.777Z,6.78
2022-07-25T11:02:16.277Z,6.90
2022-07-25T11:04:45.827Z,6.68
2022-07-25T11:07:17.674Z,7.68
2022-07-25T11:09:56.553Z,7.00
2022-07-25T11:12:25.006Z,7.07
2022-07-25T11:15:02.200Z,6.88
2022-07-25T11:17:30.609Z,6.90
2022-07-25T11:20:01.355Z,6.40
2022-07-25T11:22:31.994Z,6.90
2022-07-25T11:25:01.291Z,7.05
2022-07-25T11:27:32.084Z,6.68
2022-07-25T11:30:09.881Z,7.28
2022-07-25T11:32:43.181Z,7.07
2022-07-25T11:35:13.063Z,6.97
2022-07-25T11:37:44.677Z,7.03
2022-07-25T11:40:16.257Z,6.50
2022-07-25T11:42:47.525Z,6.95
2022-07-25T11:45:22.163Z,6.85
2022-07-25T11:48:03.397Z,6.85
2022-07-25T11:50:33.578Z,7.30
2022-07-25T11:53:03.171Z,7.38
2022-07-25T11:55:36.314Z,7.38
2022-07-25T11:58:06.912Z,7.50
2022-07-25T12:00:44.876Z,7.32
2022-07-25T12:03:19.393Z,7.53
2022-07-25T12:05:49.748Z,6.80
2022-07-25T12:08:20.640Z,6.60
2022-07-25T12:10:51.299Z,6.60
2022-07-25T12:13:24.979Z,6.93
2022-07-25T12:15:55.116Z,6.85
2022-07-25T12:18:23.256Z,6.90
2022-07-25T12:20:51.288Z,7.45
2022-07-25T12:23:21.653Z,7.07
2022-07-25T12:25:49.885Z,7.03
2022-07-25T12:28:18.055Z,7.22
2022-07-25T12:30:54.375Z,6.85
2022-07-25T12:33:25.886Z,7.88
2022-07-25T12:35:54.053Z,7.00
2022-07-25T12:38:22.093Z,7.00
2022-07-25T12:40:50.415Z,7.75
2022-07-25T12:43:19.073Z,7.88
2022-07-25T12:45:47.225Z,7.43
2022-07-25T12:48:16.006Z,7.43
2022-07-25T12:50:46.133Z,7.10
2022-07-25T12:53:14.487Z,7.50
2022-07-25T12:55:42.577Z,6.78
2022-07-25T12:58:11.493Z,6.82
2022-07-25T13:00:39.581Z,7.57
2022-07-25T13:03:07.630Z,6.88
2022-07-25T13:05:35.703Z,7.10
2022-07-25T13:08:07.360Z,6.40
2022-07-25T13:10:35.328Z,6.70
2022-07-25T13:13:03.677Z,6.30
2022-07-25T13:15:31.715Z,6.47
2022-07-25T13:17:59.763Z,6.30
2022-07-25T13:20:28.509Z,6.60
2022-07-25T13:22:56.691Z,6.53
2022-07-25T13:25:26.071Z,6.57
2022-07-25T13:27:54.225Z,6.90
2022-07-25T13:30:22.394Z,6.78
2022-07-25T13:32:50.384Z,6.07
2022-07-25T13:35:20.755Z,6.63
2022-07-25T13:37:49.593Z,6.43
2022-07-25T13:40:17.778Z,6.57
2022-07-25T13:42:48.379Z,6.53
2022-07-25T13:45:16.540Z,6.32
2022-07-25T13:47:44.568Z,6.43
2022-07-25T13:50:12.745Z,6.13
2022-07-25T13:52:40.827Z,6.68
2022-07-25T13:55:10.374Z,6.50
2022-07-25T13:57:38.431Z,6.68
2022-07-25T14:00:09.988Z,6.40
2022-07-25T14:02:38.163Z,6.15
2022-07-25T14:05:07.157Z,6.05
2022-07-25T14:07:36.826Z,6.38
2022-07-25T14:10:08.342Z,5.93
2022-07-25T14:12:39.402Z,5.80
2022-07-25T14:15:10.698Z,6.43
2022-07-25T14:17:39.217Z,6.43
2022-07-25T14:20:09.417Z,6.35
2022-07-25T14:22:38.454Z,6.28
2022-07-25T14:25:07.559Z,6.50
2022-07-25T14:27:36.193Z,6.32
2022-07-25T14:30:04.857Z,6.60
2022-07-25T14:32:34.732Z,6.63
2022-07-25T14:35:02.977Z,6.38
2022-07-25T14:37:31.640Z,6.43
2022-07-25T14:39:59.870Z,6.50
2022-07-25T14:42:28.234Z,6.60
2022-07-25T14:44:56.380Z,6.35
2022-07-25T14:47:26.677Z,6.47
2022-07-25T14:49:56.792Z,6.50
2022-07-25T14:52:24.837Z,6.38
2022-07-25T14:54:52.974Z,6.68
2022-07-25T14:57:21.035Z,6.93
2022-07-25T14:59:49.066Z,6.60
2022-07-25T15:02:17.105Z,6.78
2022-07-25T15:04:45.155Z,6.90
2022-07-25T15:07:14.629Z,6.72
2022-07-25T15:09:42.738Z,6.63
2022-07-25T15:12:16.142Z,6.65
2022-07-25T15:14:44.613Z,7.25
2022-07-25T15:17:13.791Z,7.32
2022-07-25T15:19:41.891Z,6.90
2022-07-25T15:22:09.989Z,7.13
2022-07-25T15:25:16.850Z,7.18
2022-07-25T15:27:27.971Z,7.43
2022-07-25T15:29:55.970Z,7.18
2022-07-25T15:32:23.992Z,7.20
2022-07-25T15:34:52.047Z,7.45
2022-07-25T15:37:20.288Z,6.93
2022-07-25T15:39:49.705Z,7.53
2022-07-25T15:42:17.926Z,7.70
2022-07-25T15:44:45.941Z,6.93
2022-07-25T15:47:14.591Z,7.35
2022-07-25T15:49:43.411Z,7.47
2022-07-25T15:52:11.442Z,6.97
2022-07-25T15:54:39.502Z,7.63
2022-07-25T15:57:08.953Z,7.47
2022-07-25T15:59:37.360Z,7.30
2022-07-25T16:02:09.345Z,7.18
2022-07-25T16:04:37.370Z,7.18
2022-07-25T16:07:05.484Z,7.68
2022-07-25T16:09:33.626Z,7.57
2022-07-25T16:12:02.066Z,7.53
2022-07-25T16:14:31.467Z,7.15
2022-07-25T16:16:59.486Z,8.23
2022-07-25T16:19:27.524Z,7.85
2022-07-25T16:21:57.155Z,8.15
2022-07-25T16:24:25.643Z,7.78
2022-07-25T16:26:53.974Z,10.73
2022-07-25T16:29:21.988Z,11.38
2022-07-25T16:31:51.642Z,12.27
2022-07-25T16:34:19.682Z,11.57
2022-07-25T16:36:47.709Z,10.60
2022-07-25T16:39:16.020Z,10.60
2022-07-25T16:41:45.450Z,10.60
2022-07-25T16:44:13.420Z,10.80
2022-07-25T16:46:42.351Z,10.00
2022-07-25T16:49:13.387Z,10.32
2022-07-25T16:51:41.530Z,10.43
2022-07-25T16:54:09.579Z,10.50
2022-07-25T16:56:37.778Z,10.48
2022-07-25T16:59:07.423Z,9.88
2022-07-25T17:01:36.598Z,9.75
2022-07-25T17:04:05.534Z,9.93
2022-07-25T17:06:35.012Z,10.50
2022-07-25T17:09:03.119Z,10.18
2022-07-25T17:11:31.235Z,10.80
2022-07-25T17:14:00.500Z,10.80
2022-07-25T17:16:28.711Z,10.35
2022-07-25T17:18:56.955Z,10.90
2022-07-25T17:21:25.061Z,10.45
2022-07-25T17:23:56.443Z,11.07
2022-07-25T17:26:24.707Z,11.13
2022-07-25T17:28:53.587Z,10.95
2022-07-25T17:31:21.836Z,11.30
2022-07-25T17:33:49.842Z,11.43
2022-07-25T17:36:20.287Z,11.45
2022-07-25T17:38:48.350Z,12.23
2022-07-25T17:41:18.058Z,11.23
2022-07-25T17:43:46.062Z,11.77
2022-07-25T17:46:14.200Z,11.65
2022-07-25T17:48:42.885Z,11.70
2022-07-25T17:51:10.911Z,11.30
2022-07-25T17:53:39.134Z,10.27
2022-07-25T17:56:08.766Z,10.35
2022-07-25T17:58:38.531Z,9.80
2022-07-25T18:01:10.294Z,10.57
2022-07-25T18:03:39.218Z,10.07
2022-07-25T18:06:07.385Z,10.10
2022-07-25T18:08:35.994Z,10.00
2022-07-25T18:11:04.353Z,10.05
2022-07-25T18:13:32.356Z,10.60
2022-07-25T18:16:02.030Z,10.30
2022-07-25T18:18:31.582Z,11.18
2022-07-25T18:20:59.730Z,10.40
2022-07-25T18:23:28.747Z,10.48
2022-07-25T18:25:57.133Z,10.63
2022-07-25T18:28:25.413Z,11.20
2022-07-25T18:30:54.997Z,11.02
2022-07-25T18:33:25.536Z,10.88
2022-07-25T18:35:53.721Z,10.82
2022-07-25T18:38:21.756Z,10.10
2022-07-25T18:41:06.526Z,10.98
2022-07-25T18:43:37.865Z,10.48
2022-07-25T18:46:06.209Z,10.40
2022-07-25T18:48:37.526Z,10.93
2022-07-25T18:51:05.756Z,16.73
2022-07-25T18:53:33.944Z,11.43
2022-07-25T18:56:03.216Z,10.73
2022-07-25T18:58:31.344Z,10.40
2022-07-25T19:00:59.476Z,10.40
2022-07-25T19:03:27.701Z,10.35
2022-07-25T19:06:02.827Z,10.77
2022-07-25T19:08:33.279Z,10.80
2022-07-25T19:11:01.458Z,10.63
2022-07-25T19:16:17.802Z,10.43
2022-07-25T19:18:46.175Z,10.20
2022-07-25T19:21:16.707Z,10.35
2022-07-25T19:23:50.551Z,10.52
2022-07-25T19:26:20.346Z,11.43
2022-07-25T19:28:48.524Z,11.23
2022-07-25T19:31:16.722Z,11.20
2022-07-25T19:33:46.029Z,10.85
2022-07-25T19:36:15.540Z,11.10
2022-07-25T19:38:43.793Z,11.20
2022-07-25T19:41:11.902Z,11.15
2022-07-25T19:43:40.033Z,11.20
2022-07-25T19:46:08.060Z,11.82
2022-07-25T19:48:36.206Z,11.13
2022-07-25T19:51:04.386Z,11.60
2022-07-25T19:53:33.978Z,10.85
2022-07-25T19:56:02.095Z,11.65
2022-07-25T19:58:31.484Z,11.63
2022-07-25T20:01:01.279Z,11.50
2022-07-25T20:03:30.428Z,11.40
2022-07-25T20:05:58.689Z,11.63
2022-07-25T20:08:26.751Z,11.63
2022-07-25T20:10:56.168Z,11.45
2022-07-25T20:13:24.201Z,11.32
2022-07-25T20:15:52.209Z,11.07
2022-07-25T20:18:20.277Z,11.57
2022-07-25T20:20:48.432Z,10.93
2022-07-25T20:23:16.739Z,11.05
2022-07-25T20:25:44.865Z,10.68
2022-07-25T20:28:14.259Z,11.13
2022-07-25T20:30:42.694Z,11.00
2022-07-25T20:33:11.368Z,11.57
2022-07-25T20:35:39.833Z,11.57
2022-07-25T20:38:09.281Z,11.73
2022-07-25T20:40:43.855Z,12.35
2022-07-25T20:43:17.736Z,10.85
2022-07-25T20:45:47.470Z,11.23
2022-07-25T20:48:16.050Z,10.25
2022-07-25T20:50:44.822Z,11.35
2022-07-25T20:53:13.333Z,10.85
2022-07-25T20:55:41.305Z,10.48
2022-07-25T20:58:09.352Z,10.10
2022-07-25T21:00:38.777Z,9.88
2022-07-25T21:03:08.245Z,9.52
2022-07-25T21:05:39.325Z,9.35
2022-07-25T21:08:08.048Z,10.55
2022-07-25T21:10:36.147Z,10.25
2022-07-25T21:13:04.171Z,9.60
2022-07-25T21:15:32.494Z,9.90
2022-07-25T21:18:02.504Z,9.70
2022-07-25T21:20:30.765Z,10.05
2022-07-25T21:22:58.908Z,9.68
2022-07-25T21:25:27.246Z,9.60
2022-07-25T21:27:55.252Z,10.45
2022-07-25T21:30:23.282Z,10.23
2022-07-25T21:32:51.330Z,10.00
2022-07-25T21:35:20.680Z,10.15
2022-07-25T21:37:48.719Z,10.45
2022-07-25T21:40:16.922Z,10.20
2022-07-25T21:42:45.244Z,9.27
2022-07-25T21:45:14.150Z,10.10
2022-07-25T21:47:42.235Z,10.38
2022-07-25T21:50:29.078Z,9.02
2022-07-25T21:52:58.764Z,10.15
2022-07-25T21:55:27.001Z,9.18
2022-07-25T21:57:55.166Z,8.82
2022-07-25T22:00:23.448Z,9.73
2022-07-25T22:02:51.848Z,8.73
2022-07-25T22:05:20.612Z,8.73
2022-07-25T22:07:49.685Z,8.15
2022-07-25T22:10:22.115Z,8.50
2022-07-25T22:12:50.569Z,9.13
2022-07-25T22:15:18.743Z,8.52
2022-07-25T22:17:49.068Z,8.60
2022-07-25T22:20:18.995Z,8.20
2022-07-25T22:22:47.616Z,8.50
2022-07-25T22:25:18.379Z,7.80
2022-07-25T22:27:46.566Z,8.57
2022-07-25T22:30:19.231Z,8.25
2022-07-25T22:32:48.434Z,10.40
2022-07-25T22:35:16.728Z,13.05
2022-07-25T22:37:45.284Z,9.05
2022-07-25T22:40:14.636Z,8.73
2022-07-25T22:42:44.325Z,8.55
2022-07-25T22:45:12.852Z,8.15
2022-07-25T22:47:40.953Z,8.55
2022-07-25T22:50:11.009Z,8.25
2022-07-25T22:52:39.195Z,8.35
2022-07-25T22:55:08.317Z,8.90
2022-07-25T22:57:37.757Z,8.65
2022-07-25T23:00:12.535Z,8.30
2022-07-25T23:02:41.280Z,7.50
2022-07-25T23:05:10.822Z,7.30
2022-07-25T23:07:39.240Z,7.75
2022-07-25T23:10:08.959Z,7.93
2022-07-25T23:12:37.111Z,8.00
2022-07-25T23:15:08.418Z,7.50
2022-07-25T23:17:36.472Z,7.88
2022-07-25T23:20:06.790Z,7.35
2022-07-25T23:22:34.940Z,8.07
2022-07-25T23:25:03.178Z,8.07
2022-07-25T23:27:33.239Z,7.82
2022-07-25T23:30:04.387Z,8.82
2022-07-25T23:32:34.448Z,8.52
2022-07-25T23:35:02.821Z,7.88
2022-07-25T23:37:30.911Z,7.53
2022-07-25T23:39:58.955Z,7.85
2022-07-25T23:42:27.074Z,9.30
2022-07-25T23:44:57.507Z,7.68
2022-07-25T23:47:39.411Z,7.25
2022-07-25T23:50:12.467Z,7.65
2022-07-25T23:52:40.873Z,8.32
2022-07-25T23:55:10.587Z,8.80
2022-07-25T23:57:38.911Z,7.72
